Terminal Aerodrome Forecast
Issued by NWS Binghamton, NY

Home | Current Version | Previous Version | Text Only | Print | Product List | Glossary On
Versions: 1 2 3 4 5 6 7 8 9 10 11 12 13 14 15 16 17 18 19 20 21
000
FTUS41 KBGM 012337
TAFAVP
TAF
KAVP 012337Z 0200/0224 VRB03KT P6SM OVC015
     FM020300 00000KT P6SM OVC012
     FM021000 VRB04KT 5SM -RA BR SCT008 OVC012
     FM021500 23005KT 3SM -DZ OVC008
     FM021900 35006KT P6SM BKN015 OVC030=

USA.gov is the U.S. government's official web portal to all federal, state and local government web resources and services.